Lubbeek, Belgium
Current Conditions -  °F | °C
As of 7:13 PM on Thursday 29 Jan 2015 (Local Time) from EBBE Reporting Station
Overcast Overcast  
Wind Chill: 30°   Ceiling: 15000
Heat Index: 37°   Visibility: 6mi
Dew Point: 34°   Wind: 12mph
Humidity: 87%   Direction: 220°SW
Pressure: 28.82"   Gusts: NA
Location:  50.88°N, 4.84°E
Report Text: EBBE 291813Z AUTO 22010KT 9999 SCT130/// OVC150/// 03/01 Q0976 BLU
Loading
Personal Weather Stations






























Interactive Weather Map New forecast layout! Learn more

10-Day Weather Forecast

Advertisements
Track Severe Weather on mobile